Monday, February 18, 2019, 5:17 AM EST
Back to Local

KAKR, Akron Fulton International

Location: Akron, OH, United States Lat: 41.033
Local Time: 5:17 AM EST (10:17 GMT) Lon: -81.467
Time Zone: US/Eastern Elev: 1069 ft

Show me the last for .
Show Coded

Time T Td Feel RH Dir Speed Gust Alt SLP Vis Weather Sky Remarks
2019-02-18 04:54 26 22 18 84 300° 8 - 29.89 29.93 10 OVC010 None
2019-02-18 04:07 26 23 12 87 320° 13 20 29.87 - 7 OVC005 None
2019-02-18 03:54 27 24 16 88 310° 14 - 29.86 29.89 7 OVC004 None
2019-02-18 03:22 28 25 18 88 300° 12 - 29.84 - 6 BR OVC004 None
2019-02-18 02:54 30 26 19 84 280° 15 - 29.82 29.85 10 OVC006 None
2019-02-18 01:54 30 26 19 84 260° 16 - 29.78 29.81 10 OVC009 None
2019-02-18 01:47 30 26 20 84 260° 14 - 29.78 - 10 BKN009 OVC014 None
2019-02-18 01:10 31 27 19 85 270° 17 - 29.77 - 10 OVC011 None
2019-02-18 00:54 31 28 21 88 270° 14 - 29.76 29.78 9 OVC007 6-hr Min Temp (1am): 30.9°F
6-hr Max Temp (1am): 32.0°F
2019-02-18 00:20 31 29 23 92 280° 8 - 29.74 - 7 OVC005 None
2019-02-17 23:54 31 29 23 92 290° 9 - 29.73 29.76 4 BR OVC004 24-hr Min Temp (12am): 24.1°F
24-hr Max Temp (12am): 32.0°F
2019-02-17 22:54 32 30 25 92 290° 8 - 29.72 29.75 2 BR OVC003 None
2019-02-17 22:31 32 30 27 92 300° 5 - 29.72 - 2 BR OVC003 None
2019-02-17 22:16 32 30 29 92 320° 3 - 29.71 - 1 BR OVC003 None
2019-02-17 21:54 32 30 29 92 340° 3 - 29.71 29.73 2 BR OVC003 None
2019-02-17 21:05 32 30 - 92 - Calm - 29.70 - 2 BR OVC004 None
2019-02-17 20:54 32 30 - 92 - Calm - 29.71 29.73 4 BR OVC005 None
2019-02-17 19:54 32 29 27 88 60° 5 - 29.71 29.74 3 BR OVC006 None
2019-02-17 18:54 32 28 29 85 Variable 3 - 29.72 29.75 4 BR OVC008 6-hr Precip Total (7pm): 0.00"
6-hr Min Temp (7pm): 30.9°F
6-hr Max Temp (7pm): 32.0°F
2019-02-17 18:33 31 28 25 88 60° 6 - 29.72 - 3 BR OVC009 None
2019-02-17 18:23 31 28 26 88 90° 5 - 29.73 - 2 BR BKN007 OVC012 None
2019-02-17 18:14 31 28 27 88 70° 3 - 29.73 - 3 BR BKN010 OVC018 None
2019-02-17 17:54 32 26 26 78 80° 6 - 29.73 29.76 6 HZ OVC020 None
2019-02-17 16:54 32 23 26 68 90° 7 - 29.72 29.75 10 OVC022 1-hr Precip Total: Trace
2019-02-17 16:32 32 22 26 65 80° 7 - 29.75 - 10 BKN022 OVC034 1-hr Precip Total: Trace
2019-02-17 15:54 32 23 24 68 70° 9 - 29.77 29.80 10 UP SCT028 BKN034 OVC045 1-hr Precip Total: Trace
6-hr Precip Total (4pm): 0.00"
2019-02-17 15:29 32 22 24 65 80° 10 - 29.78 - 6 -SN FEW028 BKN037 OVC047 1-hr Precip Total: Trace
2019-02-17 15:03 32 21 25 63 70° 8 - 29.81 - 4 -SN OVC029 1-hr Precip Total: Trace
2019-02-17 14:54 32 20 24 60 50° 9 - 29.82 29.85 10 UP OVC031 1-hr Precip Total: Trace
2019-02-17 14:32 32 20 24 60 40° 9 - 29.83 - 10 SCT023 OVC031 1-hr Precip Total: Trace
2019-02-17 13:54 32 20 26 60 70° 7 - 29.83 29.86 10 OVC028 None
2019-02-17 13:34 32 19 26 58 50° 6 - 29.85 - 10 OVC027 Pressure rising rapidly
2019-02-17 12:54 32 19 25 58 70° 8 - 29.84 29.87 10 OVC030 6-hr Min Temp (1pm): 24.1°F
6-hr Max Temp (1pm): 32.0°F
2019-02-17 11:54 30 18 23 60 90° 7 - 29.89 29.92 10 OVC060 None
2019-02-17 10:54 29 17 23 60 Variable 6 - 29.92 29.95 10 BKN070 OVC090 None
2019-02-17 09:54 29 17 25 60 120° 3 - 29.93 29.96 10 OVC075 None
2019-02-17 08:54 27 16 19 62 70° 7 - 29.97 30.01 10 BKN080 None
2019-02-17 07:54 24 16 14 70 70° 10 - 29.94 29.98 10 CLR Pressure falling rapidly
2019-02-17 06:54 24 16 16 70 90° 7 - 29.95 29.99 10 CLR 6-hr Min Temp (7am): 24.1°F
6-hr Max Temp (7am): 26.1°F
2019-02-17 06:10 25 16 18 68 90° 6 - 29.98 - 10 SCT019 None
2019-02-17 05:54 25 16 17 68 80° 7 - 29.99 30.02 10 OVC019 None

Support USWX by starting your Amazon purchase here.